Time;durP1;ratioP1;P1;durP2;ratioP2;P2;SDS_P1;SDS_P2;PMS_P1;PMS_P2;Temp;Humidity;BMP_temperature;BMP_pressure;BME280_temperature;BME280_humidity;BME280_pressure;Samples;Min_cycle;Max_cycle;Signal;HPM_P1;HPM_P2
2022/07/01 00:01:39;;;;;;;3.08;1.67;;;;;;;;;;5053813;28;20013;-76
2022/07/01 00:04:06;;;;;;;2.00;1.65;;;;;;;;;;5055320;28;20115;-77
2022/07/01 00:06:32;;;;;;;1.70;1.60;;;;;;;;;;5050612;28;20483;-76
2022/07/01 00:08:58;;;;;;;2.58;1.65;;;;;;;;;;5059311;28;20039;-77
2022/07/01 00:11:24;;;;;;;1.73;1.40;;;;;;;;;;5058189;28;20483;-76
2022/07/01 00:13:50;;;;;;;1.83;1.67;;;;;;;;;;5066693;28;20117;-76
2022/07/01 00:16:16;;;;;;;2.30;1.58;;;;;;;;;;5065013;28;20059;-77
2022/07/01 00:18:42;;;;;;;1.67;1.58;;;;;;;;;;5065823;28;20024;-76
2022/07/01 00:21:08;;;;;;;2.13;1.73;;;;;;;;;;5069944;28;20482;-76
2022/07/01 00:23:34;;;;;;;1.75;1.65;;;;;;;;;;5063244;28;20793;-76
2022/07/01 00:26:00;;;;;;;1.55;1.45;;;;;;;;;;5056678;28;20048;-77
2022/07/01 00:28:27;;;;;;;2.70;1.92;;;;;;;;;;5056348;28;20088;-75
2022/07/01 00:30:53;;;;;;;2.45;1.95;;;;;;;;;;5059266;28;20123;-75
2022/07/01 00:33:19;;;;;;;2.28;1.65;;;;;;;;;;5053449;28;20451;-75
2022/07/01 00:35:45;;;;;;;2.20;1.80;;;;;;;;;;5059635;28;20032;-76
2022/07/01 00:38:11;;;;;;;2.50;1.90;;;;;;;;;;5064575;28;20025;-76
2022/07/01 00:40:37;;;;;;;2.38;1.77;;;;;;;;;;5061062;28;20443;-75
2022/07/01 00:43:04;;;;;;;3.78;1.80;;;;;;;;;;5057462;28;20040;-76
2022/07/01 00:45:30;;;;;;;2.75;1.80;;;;;;;;;;5062107;28;20031;-76
2022/07/01 00:47:57;;;;;;;5.28;2.50;;;;;;;;;;5060290;28;20045;-75
2022/07/01 00:50:24;;;;;;;4.72;2.00;;;;;;;;;;5055605;28;20094;-75
2022/07/01 00:52:50;;;;;;;5.03;1.80;;;;;;;;;;5055273;28;20600;-76
2022/07/01 00:55:16;;;;;;;3.92;1.90;;;;;;;;;;5060833;28;20075;-76
2022/07/01 00:57:43;;;;;;;4.35;2.08;;;;;;;;;;5077091;28;20111;-76
2022/07/01 01:00:11;;;;;;;2.55;1.80;;;;;;;;;;5055455;28;20467;-76
2022/07/01 01:02:37;;;;;;;2.47;2.00;;;;;;;;;;5051465;28;20025;-75
2022/07/01 01:05:04;;;;;;;2.63;1.90;;;;;;;;;;5061835;28;20028;-77
2022/07/01 01:07:31;;;;;;;2.03;1.80;;;;;;;;;;5057288;28;20060;-76
2022/07/01 01:09:59;;;;;;;4.07;1.75;;;;;;;;;;5060938;28;20029;-76
2022/07/01 01:12:28;;;;;;;3.00;1.80;;;;;;;;;;5057320;28;20028;-75
2022/07/01 01:14:55;;;;;;;1.85;1.73;;;;;;;;;;5058807;28;20021;-76
2022/07/01 01:17:25;;;;;;;3.33;2.83;;;;;;;;;;5061111;28;20263;-76
2022/07/01 01:19:53;;;;;;;3.00;1.60;;;;;;;;;;5056429;28;20079;-76
2022/07/01 01:22:20;;;;;;;3.33;1.75;;;;;;;;;;5062988;28;20544;-76
2022/07/01 01:24:50;;;;;;;2.03;1.80;;;;;;;;;;5057089;28;20399;-78
2022/07/01 01:27:16;;;;;;;2.42;1.80;;;;;;;;;;5055794;28;20048;-77
2022/07/01 01:29:43;;;;;;;1.85;1.67;;;;;;;;;;5061194;28;20049;-76
2022/07/01 01:32:09;;;;;;;3.67;2.17;;;;;;;;;;5056635;28;20044;-76
2022/07/01 01:34:39;;;;;;;4.18;2.13;;;;;;;;;;5055270;28;20483;-76
2022/07/01 01:37:06;;;;;;;2.60;1.90;;;;;;;;;;5055171;28;20532;-76
2022/07/01 01:39:33;;;;;;;2.05;1.83;;;;;;;;;;5056743;28;20025;-78
2022/07/01 01:42:00;;;;;;;2.35;1.83;;;;;;;;;;5065151;28;20406;-77
2022/07/01 01:44:26;;;;;;;2.45;1.80;;;;;;;;;;5053384;28;20082;-77
2022/07/01 01:46:52;;;;;;;2.70;1.70;;;;;;;;;;5058660;28;20387;-76
2022/07/01 01:49:18;;;;;;;2.35;2.00;;;;;;;;;;5061839;28;20087;-77
2022/07/01 01:51:44;;;;;;;2.65;1.65;;;;;;;;;;5059242;28;20095;-77
2022/07/01 01:54:10;;;;;;;2.83;2.30;;;;;;;;;;5057413;28;20025;-76
2022/07/01 01:56:36;;;;;;;2.67;2.00;;;;;;;;;;5057356;28;20021;-77
2022/07/01 01:59:04;;;;;;;3.55;2.00;;;;;;;;;;5053306;28;20300;-77
2022/07/01 02:01:30;;;;;;;3.25;2.20;;;;;;;;;;5055383;28;20037;-77
2022/07/01 02:03:56;;;;;;;4.13;2.00;;;;;;;;;;5060870;28;20025;-77
2022/07/01 02:06:23;;;;;;;3.58;1.98;;;;;;;;;;5062393;28;20494;-76
2022/07/01 02:08:49;;;;;;;2.78;1.77;;;;;;;;;;5068107;28;20104;-76
2022/07/01 02:11:15;;;;;;;2.42;2.00;;;;;;;;;;5060287;28;20078;-76
2022/07/01 02:13:41;;;;;;;3.15;1.90;;;;;;;;;;5056994;28;20077;-76
2022/07/01 02:16:07;;;;;;;3.05;2.50;;;;;;;;;;5055936;28;20018;-77
2022/07/01 02:18:33;;;;;;;2.30;1.80;;;;;;;;;;5067306;28;20493;-76
2022/07/01 02:21:00;;;;;;;2.88;1.73;;;;;;;;;;5060835;28;20691;-77
2022/07/01 02:23:26;;;;;;;3.08;2.05;;;;;;;;;;5057789;28;20483;-77
2022/07/01 02:25:52;;;;;;;3.30;2.30;;;;;;;;;;5060254;28;20135;-78
2022/07/01 02:28:18;;;;;;;3.88;2.20;;;;;;;;;;5054916;28;20442;-77
2022/07/01 02:30:44;;;;;;;2.38;1.88;;;;;;;;;;5052491;28;20045;-76
2022/07/01 02:33:10;;;;;;;2.30;1.90;;;;;;;;;;5068337;28;20429;-77
2022/07/01 02:35:37;;;;;;;2.63;2.03;;;;;;;;;;5058184;28;20048;-78
2022/07/01 02:38:04;;;;;;;2.92;2.20;;;;;;;;;;5056751;28;20021;-78
2022/07/01 02:40:30;;;;;;;2.20;2.00;;;;;;;;;;5057452;28;20433;-76
2022/07/01 02:42:56;;;;;;;5.05;1.80;;;;;;;;;;5061105;28;20028;-77
2022/07/01 02:45:25;;;;;;;3.60;2.20;;;;;;;;;;5061400;28;20074;-77
2022/07/01 02:47:51;;;;;;;2.58;2.05;;;;;;;;;;5053444;28;20025;-76
2022/07/01 02:50:18;;;;;;;3.25;2.25;;;;;;;;;;5055403;28;20025;-76
2022/07/01 02:52:44;;;;;;;3.35;2.20;;;;;;;;;;5054244;28;20037;-77
2022/07/01 02:55:11;;;;;;;3.83;2.10;;;;;;;;;;5051841;28;20483;-76
2022/07/01 02:57:38;;;;;;;2.90;2.25;;;;;;;;;;5060778;28;20025;-76
2022/07/01 03:00:05;;;;;;;3.00;1.95;;;;;;;;;;5047399;28;20024;-76
2022/07/01 03:02:32;;;;;;;2.17;1.98;;;;;;;;;;5058027;28;20027;-77
2022/07/01 03:04:58;;;;;;;2.90;2.20;;;;;;;;;;5054188;28;20073;-75
2022/07/01 03:07:24;;;;;;;2.65;2.00;;;;;;;;;;5056874;28;20451;-75
2022/07/01 03:09:50;;;;;;;3.78;1.90;;;;;;;;;;5060297;28;20032;-76
2022/07/01 03:12:27;;;;;;;2.95;1.80;;;;;;;;;;5061994;28;20251;-76
2022/07/01 03:14:56;;;;;;;2.33;1.98;;;;;;;;;;5062773;28;20376;-77
2022/07/01 03:17:23;;;;;;;2.50;2.25;;;;;;;;;;5056841;28;20463;-76
2022/07/01 03:19:51;;;;;;;2.58;1.75;;;;;;;;;;5060758;28;20025;-76
2022/07/01 03:22:17;;;;;;;2.25;2.00;;;;;;;;;;5053265;28;20255;-76
2022/07/01 03:24:43;;;;;;;3.15;2.42;;;;;;;;;;5056323;28;20040;-77
2022/07/01 03:27:09;;;;;;;2.33;1.90;;;;;;;;;;5054332;28;20040;-76
2022/07/01 03:29:36;;;;;;;2.10;1.90;;;;;;;;;;5056214;28;20033;-76
2022/07/01 03:32:02;;;;;;;2.78;2.00;;;;;;;;;;5054366;28;20037;-75
2022/07/01 03:34:28;;;;;;;2.28;1.88;;;;;;;;;;5057869;28;20442;-75
2022/07/01 03:36:54;;;;;;;2.53;2.00;;;;;;;;;;5056666;28;20386;-78
2022/07/01 03:39:21;;;;;;;2.25;2.05;;;;;;;;;;5061847;28;20116;-76
2022/07/01 03:41:47;;;;;;;3.85;2.10;;;;;;;;;;5054268;28;20025;-75
2022/07/01 03:44:13;;;;;;;1.98;1.73;;;;;;;;;;5057638;28;20271;-75
2022/07/01 03:46:39;;;;;;;3.88;2.00;;;;;;;;;;5055220;28;20021;-76
2022/07/01 03:49:05;;;;;;;4.00;2.03;;;;;;;;;;5051697;28;20055;-76
2022/07/01 03:51:31;;;;;;;2.80;2.03;;;;;;;;;;5066648;28;20032;-76
2022/07/01 03:56:42;;;;;;;2.72;1.90;;;;;;;;;;5054865;28;20510;-77
2022/07/01 03:59:08;;;;;;;3.15;2.10;;;;;;;;;;5061371;28;20021;-77
2022/07/01 04:01:34;;;;;;;2.70;2.00;;;;;;;;;;5058547;28;20029;-77
2022/07/01 04:04:00;;;;;;;2.67;2.30;;;;;;;;;;5060932;28;20106;-77
2022/07/01 04:06:27;;;;;;;2.80;2.08;;;;;;;;;;5067663;28;20325;-77
2022/07/01 04:08:54;;;;;;;3.22;2.40;;;;;;;;;;5065205;28;20035;-75
2022/07/01 04:11:20;;;;;;;3.10;2.63;;;;;;;;;;5064960;28;20090;-75
2022/07/01 04:13:50;;;;;;;3.20;2.17;;;;;;;;;;5080168;28;20390;-76
2022/07/01 04:16:17;;;;;;;5.28;2.40;;;;;;;;;;5056434;28;20083;-76
2022/07/01 04:18:43;;;;;;;2.70;1.90;;;;;;;;;;5073488;28;20040;-77
2022/07/01 04:23:56;;;;;;;4.72;2.13;;;;;;;;;;5058308;28;20098;-76
2022/07/01 04:26:23;;;;;;;2.55;2.25;;;;;;;;;;5064991;28;20471;-76
2022/07/01 04:28:49;;;;;;;3.55;2.20;;;;;;;;;;5061103;28;20348;-76
2022/07/01 04:31:15;;;;;;;4.05;1.98;;;;;;;;;;5060780;28;20498;-78
2022/07/01 04:33:42;;;;;;;3.72;2.05;;;;;;;;;;5056057;28;20069;-77
2022/07/01 04:36:08;;;;;;;3.08;2.03;;;;;;;;;;5060806;28;20024;-77
2022/07/01 04:38:34;;;;;;;3.95;2.10;;;;;;;;;;5062891;28;20479;-77
2022/07/01 04:43:45;;;;;;;4.53;2.40;;;;;;;;;;5057310;28;20032;-74
2022/07/01 04:46:11;;;;;;;3.92;2.28;;;;;;;;;;5055601;28;20211;-76
2022/07/01 04:48:37;;;;;;;2.60;2.30;;;;;;;;;;5057918;28;20029;-76
2022/07/01 04:51:04;;;;;;;5.70;2.92;;;;;;;;;;5056454;28;20024;-75
2022/07/01 04:53:30;;;;;;;4.35;2.55;;;;;;;;;;5058297;28;20025;-75
2022/07/01 04:55:56;;;;;;;3.45;2.60;;;;;;;;;;5054914;28;20446;-76
2022/07/01 04:58:22;;;;;;;5.00;2.75;;;;;;;;;;5058298;28;20029;-76
2022/07/01 05:00:48;;;;;;;4.10;3.10;;;;;;;;;;5054266;28;20028;-76
2022/07/01 05:03:14;;;;;;;4.00;3.10;;;;;;;;;;5060870;28;20063;-75
2022/07/01 05:05:40;;;;;;;3.72;3.10;;;;;;;;;;5057192;28;20032;-75
2022/07/01 05:08:06;;;;;;;3.28;2.53;;;;;;;;;;5062081;28;20492;-75
2022/07/01 05:10:33;;;;;;;4.70;2.97;;;;;;;;;;5063477;28;20028;-76
2022/07/01 05:12:59;;;;;;;4.75;2.67;;;;;;;;;;5061104;28;20398;-76
2022/07/01 05:15:25;;;;;;;3.50;2.70;;;;;;;;;;5059987;28;20024;-76
2022/07/01 05:23:20;;;;;;;4.00;2.50;;;;;;;;;;5061113;28;20103;-77
2022/07/01 05:25:47;;;;;;;3.25;2.72;;;;;;;;;;5059859;28;20021;-76
2022/07/01 05:28:13;;;;;;;4.32;2.50;;;;;;;;;;5057007;28;20037;-75
2022/07/01 05:30:40;;;;;;;5.05;2.85;;;;;;;;;;5057347;28;20041;-76
2022/07/01 05:33:06;;;;;;;5.32;2.83;;;;;;;;;;5060693;28;20020;-76
2022/07/01 05:35:32;;;;;;;3.15;2.50;;;;;;;;;;5055596;28;20056;-76
2022/07/01 05:37:58;;;;;;;3.00;2.40;;;;;;;;;;5059742;28;20036;-76
2022/07/01 05:40:27;;;;;;;3.72;2.53;;;;;;;;;;5062157;28;20031;-77
2022/07/01 05:42:54;;;;;;;4.03;2.88;;;;;;;;;;5054933;28;20025;-76
2022/07/01 05:45:20;;;;;;;3.45;2.65;;;;;;;;;;5059476;28;20021;-77
2022/07/01 05:47:46;;;;;;;4.38;2.70;;;;;;;;;;5056115;28;20052;-76
2022/07/01 05:50:12;;;;;;;5.97;3.10;;;;;;;;;;5062359;28;20437;-77
2022/07/01 05:52:38;;;;;;;3.72;2.85;;;;;;;;;;5056003;28;20475;-76
2022/07/01 05:55:04;;;;;;;5.65;2.83;;;;;;;;;;5054599;28;20021;-76
2022/07/01 05:57:30;;;;;;;5.13;2.90;;;;;;;;;;5058095;28;20114;-76
2022/07/01 05:59:56;;;;;;;6.70;3.20;;;;;;;;;;5065886;28;20028;-76
2022/07/01 06:02:23;;;;;;;3.97;3.58;;;;;;;;;;5060283;28;20020;-76
2022/07/01 06:04:49;;;;;;;4.53;3.00;;;;;;;;;;5054041;28;20035;-77
2022/07/01 06:07:15;;;;;;;4.85;2.97;;;;;;;;;;5056897;28;20082;-77
2022/07/01 06:09:41;;;;;;;8.15;3.72;;;;;;;;;;5057722;28;20028;-76
2022/07/01 06:12:07;;;;;;;5.20;2.70;;;;;;;;;;5054057;28;20029;-77
2022/07/01 06:14:33;;;;;;;5.53;3.20;;;;;;;;;;5060395;28;20052;-77
2022/07/01 06:16:59;;;;;;;5.97;3.10;;;;;;;;;;5057362;28;20487;-77
2022/07/01 06:19:25;;;;;;;6.03;3.83;;;;;;;;;;5057499;28;20025;-76
2022/07/01 06:21:51;;;;;;;7.13;3.88;;;;;;;;;;5055119;28;20032;-75
2022/07/01 06:24:17;;;;;;;5.40;3.80;;;;;;;;;;5061535;28;20037;-76
2022/07/01 06:26:43;;;;;;;6.22;3.55;;;;;;;;;;5055548;28;20028;-76
2022/07/01 06:29:11;;;;;;;4.35;3.30;;;;;;;;;;5055112;28;20495;-76
2022/07/01 06:31:37;;;;;;;3.90;3.45;;;;;;;;;;5062764;28;20102;-77
2022/07/01 06:34:03;;;;;;;5.05;3.60;;;;;;;;;;5057685;28;20112;-77
2022/07/01 06:36:29;;;;;;;5.95;3.20;;;;;;;;;;5061877;28;20029;-76
2022/07/01 06:38:55;;;;;;;4.20;3.15;;;;;;;;;;5056549;28;20063;-75
2022/07/01 06:41:27;;;;;;;5.95;3.47;;;;;;;;;;5055507;28;20040;-76
2022/07/01 06:43:57;;;;;;;4.78;4.03;;;;;;;;;;5058330;28;20424;-77
2022/07/01 06:46:23;;;;;;;7.88;4.03;;;;;;;;;;5054408;28;20036;-77
2022/07/01 06:48:49;;;;;;;7.90;3.25;;;;;;;;;;5064403;28;20135;-76
2022/07/01 06:51:15;;;;;;;4.07;3.40;;;;;;;;;;5052392;28;20024;-77
2022/07/01 06:53:44;;;;;;;4.18;2.90;;;;;;;;;;5057167;28;20031;-76
2022/07/01 06:56:10;;;;;;;5.07;2.72;;;;;;;;;;5053738;28;20016;-77
2022/07/01 06:58:37;;;;;;;5.68;3.13;;;;;;;;;;5057954;28;20020;-77
2022/07/01 07:01:03;;;;;;;3.80;2.50;;;;;;;;;;5054584;28;20031;-77
2022/07/01 07:03:29;;;;;;;4.00;2.55;;;;;;;;;;5055788;28;20029;-78
2022/07/01 07:05:56;;;;;;;4.40;2.83;;;;;;;;;;5055302;28;20406;-77
2022/07/01 07:08:22;;;;;;;5.05;2.90;;;;;;;;;;5062682;28;20071;-77
2022/07/01 07:10:48;;;;;;;4.05;2.90;;;;;;;;;;5060064;28;20028;-77
2022/07/01 07:13:14;;;;;;;4.32;3.10;;;;;;;;;;5052341;28;20032;-77
2022/07/01 07:15:41;;;;;;;4.22;2.63;;;;;;;;;;5064926;28;20032;-77
2022/07/01 07:18:07;;;;;;;5.68;2.60;;;;;;;;;;5064684;28;20048;-75
2022/07/01 07:20:34;;;;;;;5.50;2.60;;;;;;;;;;5057166;28;20029;-76
2022/07/01 07:23:00;;;;;;;3.85;2.58;;;;;;;;;;5052540;28;20442;-77
2022/07/01 07:25:27;;;;;;;4.55;2.78;;;;;;;;;;5055765;28;20025;-76
2022/07/01 07:27:53;;;;;;;5.68;2.90;;;;;;;;;;5059119;28;20020;-77
2022/07/01 07:30:19;;;;;;;5.60;2.65;;;;;;;;;;5056335;28;20128;-77
2022/07/01 07:32:45;;;;;;;4.93;2.88;;;;;;;;;;5055021;28;20020;-78
2022/07/01 07:35:13;;;;;;;4.22;3.00;;;;;;;;;;5058190;28;20495;-75
2022/07/01 07:37:40;;;;;;;7.63;3.25;;;;;;;;;;5056902;28;20029;-77
2022/07/01 07:40:09;;;;;;;6.38;3.20;;;;;;;;;;5064030;28;20032;-77
2022/07/01 07:42:36;;;;;;;5.13;2.33;;;;;;;;;;5052538;28;20029;-77
2022/07/01 07:45:03;;;;;;;4.80;2.67;;;;;;;;;;5062084;28;20035;-76
2022/07/01 07:47:29;;;;;;;3.85;2.88;;;;;;;;;;5049840;28;20492;-77
2022/07/01 07:49:55;;;;;;;4.35;2.53;;;;;;;;;;5050184;28;20033;-76
2022/07/01 07:52:21;;;;;;;3.83;2.50;;;;;;;;;;5048982;28;20333;-77
2022/07/01 07:54:47;;;;;;;5.57;2.60;;;;;;;;;;5057487;28;20158;-77
2022/07/01 07:57:13;;;;;;;3.95;2.55;;;;;;;;;;5061059;28;20028;-78
2022/07/01 07:59:39;;;;;;;3.63;2.47;;;;;;;;;;5049911;28;20502;-77
2022/07/01 08:02:05;;;;;;;4.47;2.33;;;;;;;;;;5058531;28;20500;-77
2022/07/01 08:04:31;;;;;;;4.55;2.45;;;;;;;;;;5059943;28;20112;-77
2022/07/01 08:06:58;;;;;;;3.80;2.45;;;;;;;;;;5057958;28;20020;-75
2022/07/01 08:09:24;;;;;;;4.72;2.28;;;;;;;;;;5059136;28;20086;-76
2022/07/01 08:11:50;;;;;;;2.80;2.50;;;;;;;;;;5064081;28;20529;-76
2022/07/01 08:14:16;;;;;;;4.13;2.13;;;;;;;;;;5058791;28;20104;-78
2022/07/01 08:16:42;;;;;;;3.38;2.03;;;;;;;;;;5065238;28;20033;-75
2022/07/01 08:19:08;;;;;;;3.70;2.42;;;;;;;;;;5059168;28;20029;-77
2022/07/01 08:21:35;;;;;;;3.88;2.53;;;;;;;;;;5051367;28;20013;-76
2022/07/01 08:24:01;;;;;;;5.03;2.33;;;;;;;;;;5051257;28;20025;-76
2022/07/01 08:26:27;;;;;;;4.72;2.90;;;;;;;;;;5048690;28;20037;-77
2022/07/01 08:28:53;;;;;;;4.60;2.72;;;;;;;;;;5058037;28;20021;-77
2022/07/01 08:31:19;;;;;;;3.80;2.42;;;;;;;;;;5049543;28;20045;-78
2022/07/01 08:33:45;;;;;;;3.67;2.03;;;;;;;;;;5065070;28;20319;-77
2022/07/01 08:36:13;;;;;;;3.95;2.47;;;;;;;;;;5063198;28;20032;-78
2022/07/01 08:38:39;;;;;;;7.00;2.40;;;;;;;;;;5065418;28;20346;-75
2022/07/01 08:41:06;;;;;;;2.35;2.15;;;;;;;;;;5064225;28;20029;-76
2022/07/01 08:43:32;;;;;;;2.88;1.90;;;;;;;;;;5058780;28;20016;-75
2022/07/01 08:46:01;;;;;;;2.58;2.30;;;;;;;;;;5064618;28;20032;-76
2022/07/01 08:48:27;;;;;;;2.53;2.20;;;;;;;;;;5064318;28;20491;-75
2022/07/01 08:50:53;;;;;;;2.67;2.10;;;;;;;;;;5053198;28;20545;-75
2022/07/01 08:53:19;;;;;;;2.60;2.05;;;;;;;;;;5051209;28;20032;-76
2022/07/01 08:58:30;;;;;;;3.40;2.20;;;;;;;;;;5061409;28;20108;-76
2022/07/01 09:01:15;;;;;;;3.22;2.17;;;;;;;;;;5054933;28;20021;-76
2022/07/01 09:03:41;;;;;;;3.97;2.10;;;;;;;;;;5059847;28;20405;-76
2022/07/01 09:06:14;;;;;;;4.75;2.75;;;;;;;;;;5065883;28;20032;-77
2022/07/01 09:08:41;;;;;;;4.10;2.05;;;;;;;;;;5061644;28;20066;-75
2022/07/01 09:11:18;;;;;;;5.32;2.20;;;;;;;;;;5063553;28;20040;-76
2022/07/01 09:13:45;;;;;;;3.92;2.00;;;;;;;;;;5064480;28;20051;-75
2022/07/01 09:16:12;;;;;;;3.92;2.40;;;;;;;;;;5058917;28;20445;-75
2022/07/01 09:18:39;;;;;;;5.43;2.45;;;;;;;;;;5061418;28;20148;-77
2022/07/01 09:21:08;;;;;;;4.18;2.22;;;;;;;;;;5067739;28;20036;-76
2022/07/01 09:23:34;;;;;;;4.32;2.28;;;;;;;;;;5053439;28;20050;-76
2022/07/01 09:26:00;;;;;;;3.15;2.53;;;;;;;;;;5055246;28;20123;-75
2022/07/01 09:28:27;;;;;;;2.97;2.10;;;;;;;;;;5058788;28;20029;-76
2022/07/01 09:30:55;;;;;;;4.32;2.20;;;;;;;;;;5050736;28;20248;-77
2022/07/01 09:33:25;;;;;;;5.30;2.38;;;;;;;;;;5057417;28;20478;-76
2022/07/01 09:35:52;;;;;;;4.47;2.10;;;;;;;;;;5058757;28;20028;-76
2022/07/01 09:38:23;;;;;;;2.95;2.13;;;;;;;;;;5059313;28;20028;-76
2022/07/01 09:40:54;;;;;;;2.53;2.20;;;;;;;;;;5057920;28;20021;-79
2022/07/01 09:43:21;;;;;;;2.28;2.00;;;;;;;;;;5050836;28;20028;-76
2022/07/01 09:45:52;;;;;;;5.03;2.38;;;;;;;;;;5053428;28;20029;-76
2022/07/01 09:48:18;;;;;;;3.35;2.38;;;;;;;;;;5052423;28;20028;-75
2022/07/01 09:50:45;;;;;;;6.82;2.53;;;;;;;;;;5061807;28;20495;-74
2022/07/01 09:53:12;;;;;;;4.18;2.00;;;;;;;;;;5062975;28;20143;-76
2022/07/01 09:55:39;;;;;;;4.65;2.08;;;;;;;;;;5054284;28;20079;-76
2022/07/01 09:58:05;;;;;;;2.88;2.10;;;;;;;;;;5061807;28;20558;-77
2022/07/01 10:00:32;;;;;;;2.92;2.33;;;;;;;;;;5057502;28;20029;-76
2022/07/01 10:03:00;;;;;;;2.63;2.42;;;;;;;;;;5051443;28;20028;-76
2022/07/01 10:05:27;;;;;;;5.07;2.08;;;;;;;;;;5056646;28;20021;-77
2022/07/01 10:07:54;;;;;;;2.70;2.00;;;;;;;;;;5056410;28;20370;-77
2022/07/01 10:10:20;;;;;;;2.72;2.20;;;;;;;;;;5056317;28;20016;-78
2022/07/01 10:12:56;;;;;;;5.43;2.33;;;;;;;;;;5064135;28;20025;-75
2022/07/01 10:15:22;;;;;;;3.38;2.53;;;;;;;;;;5061875;28;20017;-76
2022/07/01 10:17:49;;;;;;;3.60;2.38;;;;;;;;;;5064712;28;20077;-76
2022/07/01 10:20:15;;;;;;;2.83;2.20;;;;;;;;;;5056848;28;20025;-76
2022/07/01 10:22:43;;;;;;;4.55;3.05;;;;;;;;;;5057271;28;20033;-77
2022/07/01 10:25:28;;;;;;;3.50;1.90;;;;;;;;;;5059681;28;20020;-76
2022/07/01 10:28:12;;;;;;;2.45;2.25;;;;;;;;;;5059608;28;20024;-77
2022/07/01 10:31:02;;;;;;;3.67;1.90;;;;;;;;;;5059025;28;20045;-76
2022/07/01 10:33:32;;;;;;;1.90;1.70;;;;;;;;;;5048626;28;20117;-77
2022/07/01 10:36:05;;;;;;;2.28;1.95;;;;;;;;;;5055027;28;20726;-76
2022/07/01 10:38:31;;;;;;;2.03;1.83;;;;;;;;;;5056273;28;20032;-75
2022/07/01 10:41:09;;;;;;;2.00;1.77;;;;;;;;;;5058852;28;20025;-76
2022/07/01 10:43:37;;;;;;;2.63;1.90;;;;;;;;;;5064092;28;20099;-76
2022/07/01 10:46:04;;;;;;;1.98;1.70;;;;;;;;;;5059461;28;20049;-76
2022/07/01 10:48:33;;;;;;;3.45;1.70;;;;;;;;;;5065417;28;20533;-75
2022/07/01 10:50:59;;;;;;;2.00;1.80;;;;;;;;;;5064958;28;20032;-77
2022/07/01 10:53:30;;;;;;;2.42;1.90;;;;;;;;;;5065039;28;20029;-78
2022/07/01 10:55:59;;;;;;;2.00;1.73;;;;;;;;;;5054195;28;20478;-76
2022/07/01 10:58:38;;;;;;;2.13;1.80;;;;;;;;;;5050931;28;20083;-75
2022/07/01 11:01:04;;;;;;;2.78;1.92;;;;;;;;;;5060731;28;20023;-73
2022/07/01 11:03:34;;;;;;;2.35;1.80;;;;;;;;;;5051585;28;20116;-76
2022/07/01 11:06:00;;;;;;;2.53;1.83;;;;;;;;;;5062896;28;20379;-76
2022/07/01 11:08:26;;;;;;;4.22;2.00;;;;;;;;;;5067124;28;20029;-75
2022/07/01 11:10:55;;;;;;;3.30;2.20;;;;;;;;;;5060316;28;20049;-76
2022/07/01 11:13:21;;;;;;;2.90;2.17;;;;;;;;;;5062784;28;20037;-77
2022/07/01 11:15:48;;;;;;;2.13;1.92;;;;;;;;;;5065110;28;20069;-77
2022/07/01 11:18:15;;;;;;;4.88;1.90;;;;;;;;;;5063306;28;20025;-75
2022/07/01 11:20:41;;;;;;;4.75;2.25;;;;;;;;;;5062012;28;20025;-78
2022/07/01 11:23:07;;;;;;;4.60;3.10;;;;;;;;;;5057917;28;20535;-77
2022/07/01 11:25:34;;;;;;;2.20;2.00;;;;;;;;;;5053183;28;20028;-76
2022/07/01 11:28:00;;;;;;;3.55;2.33;;;;;;;;;;5058016;28;20059;-76
2022/07/01 11:30:26;;;;;;;2.45;1.70;;;;;;;;;;5058750;28;20040;-75
2022/07/01 11:32:54;;;;;;;2.22;1.55;;;;;;;;;;5061328;28;20427;-77
2022/07/01 11:41:25;;;;;;;2.38;1.50;;;;;;;;;;5058095;28;20552;-77
2022/07/01 11:43:52;;;;;;;1.75;1.60;;;;;;;;;;5061779;28;20502;-76
2022/07/01 11:46:19;;;;;;;1.67;1.58;;;;;;;;;;5051277;28;20364;-75
2022/07/01 11:48:49;;;;;;;1.73;1.25;;;;;;;;;;5060571;28;20427;-76
2022/07/01 11:51:16;;;;;;;1.58;1.48;;;;;;;;;;5052862;28;20039;-77
2022/07/01 11:53:43;;;;;;;2.03;1.52;;;;;;;;;;5051171;28;20021;-76
2022/07/01 11:56:10;;;;;;;1.55;1.45;;;;;;;;;;5051850;28;20115;-76
2022/07/01 11:58:52;;;;;;;2.50;1.60;;;;;;;;;;5049473;28;20071;-75
2022/07/01 12:01:25;;;;;;;1.60;1.50;;;;;;;;;;5048243;28;20029;-76
2022/07/01 12:03:51;;;;;;;1.67;1.58;;;;;;;;;;5060956;28;20391;-76
2022/07/01 12:06:18;;;;;;;3.10;1.65;;;;;;;;;;5056517;28;20086;-78
2022/07/01 12:08:45;;;;;;;2.60;1.60;;;;;;;;;;5060128;28;20108;-76
2022/07/01 12:11:11;;;;;;;3.42;1.80;;;;;;;;;;5070669;28;20028;-77
2022/07/01 12:13:38;;;;;;;1.55;1.45;;;;;;;;;;5059859;28;20047;-76
2022/07/01 12:16:07;;;;;;;1.60;1.50;;;;;;;;;;5073937;28;20108;-76
2022/07/01 12:18:33;;;;;;;2.67;1.60;;;;;;;;;;5070780;28;20070;-75
2022/07/01 12:21:01;;;;;;;1.92;1.60;;;;;;;;;;5060407;28;20392;-76
2022/07/01 12:23:32;;;;;;;1.50;1.40;;;;;;;;;;5063241;28;20052;-76
2022/07/01 12:25:58;;;;;;;2.83;1.70;;;;;;;;;;5055560;28;20044;-75
2022/07/01 12:28:26;;;;;;;1.60;1.50;;;;;;;;;;5059950;28;20042;-75
2022/07/01 12:31:06;;;;;;;3.13;1.80;;;;;;;;;;5064968;28;20040;-75
2022/07/01 12:33:33;;;;;;;2.45;1.80;;;;;;;;;;5060098;28;20112;-76
2022/07/01 12:36:01;;;;;;;1.48;1.38;;;;;;;;;;5063229;28;20024;-76
2022/07/01 12:38:27;;;;;;;2.75;1.80;;;;;;;;;;5060852;28;20036;-75
2022/07/01 12:40:53;;;;;;;1.55;1.45;;;;;;;;;;5060711;28;20293;-78
2022/07/01 12:43:23;;;;;;;3.05;1.58;;;;;;;;;;5053451;28;20087;-75
2022/07/01 12:45:49;;;;;;;2.05;1.70;;;;;;;;;;5059551;28;20057;-75
2022/07/01 12:48:15;;;;;;;2.15;1.63;;;;;;;;;;5058783;28;20021;-77
2022/07/01 12:50:41;;;;;;;1.63;1.42;;;;;;;;;;5055437;28;20029;-76
2022/07/01 12:53:11;;;;;;;3.90;1.50;;;;;;;;;;5065267;28;20489;-76
2022/07/01 12:55:39;;;;;;;3.58;1.80;;;;;;;;;;5052304;28;20037;-76
2022/07/01 12:58:12;;;;;;;2.92;1.58;;;;;;;;;;5059545;28;20047;-76
2022/07/01 13:00:39;;;;;;;4.07;2.20;;;;;;;;;;5057541;28;20020;-76
2022/07/01 13:03:06;;;;;;;2.90;1.90;;;;;;;;;;5062055;28;20157;-75
2022/07/01 13:05:33;;;;;;;2.00;1.80;;;;;;;;;;5068562;28;20453;-76
2022/07/01 13:07:59;;;;;;;3.85;1.88;;;;;;;;;;5062821;28;20289;-77
2022/07/01 13:10:25;;;;;;;5.07;1.90;;;;;;;;;;5060406;28;20068;-77
2022/07/01 13:12:52;;;;;;;1.92;1.73;;;;;;;;;;5052214;28;20029;-76
2022/07/01 13:15:18;;;;;;;2.78;1.50;;;;;;;;;;5054176;28;20084;-75
2022/07/01 13:17:45;;;;;;;2.42;1.70;;;;;;;;;;5063518;28;20025;-76
2022/07/01 13:20:11;;;;;;;2.55;1.60;;;;;;;;;;5057795;28;20029;-76
2022/07/01 13:22:38;;;;;;;2.35;1.75;;;;;;;;;;5063764;28;20481;-76
2022/07/01 13:25:04;;;;;;;2.45;1.52;;;;;;;;;;5056130;28;20029;-76
2022/07/01 13:27:30;;;;;;;2.80;1.45;;;;;;;;;;5064633;28;20153;-76
2022/07/01 13:29:57;;;;;;;1.60;1.50;;;;;;;;;;5052659;28;20044;-77
2022/07/01 13:32:23;;;;;;;4.63;1.92;;;;;;;;;;5053083;28;20032;-76
2022/07/01 13:34:49;;;;;;;1.80;1.60;;;;;;;;;;5052317;28;20017;-75
2022/07/01 13:37:15;;;;;;;1.73;1.63;;;;;;;;;;5057423;28;20344;-77
2022/07/01 13:39:42;;;;;;;1.70;1.60;;;;;;;;;;5059608;28;20161;-75
2022/07/01 13:42:08;;;;;;;2.20;1.73;;;;;;;;;;5058387;28;20486;-75
2022/07/01 13:44:34;;;;;;;1.77;1.58;;;;;;;;;;5052999;28;20041;-76
2022/07/01 13:47:01;;;;;;;1.60;1.50;;;;;;;;;;5055406;28;20499;-76
2022/07/01 13:49:28;;;;;;;3.22;2.53;;;;;;;;;;5049146;28;20403;-76
2022/07/01 13:51:57;;;;;;;3.47;1.90;;;;;;;;;;5054341;28;20025;-75
2022/07/01 13:54:23;;;;;;;1.83;1.52;;;;;;;;;;5060034;28;20044;-75
2022/07/01 13:56:49;;;;;;;1.63;1.52;;;;;;;;;;5066235;28;20417;-75
2022/07/01 13:59:15;;;;;;;1.73;1.63;;;;;;;;;;5058758;28;20025;-75
2022/07/01 14:01:43;;;;;;;1.63;1.50;;;;;;;;;;5058679;28;20032;-76
2022/07/01 14:04:10;;;;;;;2.78;2.03;;;;;;;;;;5058228;28;20019;-75
2022/07/01 14:06:36;;;;;;;1.88;1.70;;;;;;;;;;5064717;28;20016;-74
2022/07/01 14:09:02;;;;;;;2.38;1.80;;;;;;;;;;5057625;28;20017;-75
2022/07/01 14:11:28;;;;;;;1.85;1.55;;;;;;;;;;5059284;28;20108;-75
2022/07/01 14:13:54;;;;;;;1.85;1.50;;;;;;;;;;5053634;28;20090;-74
2022/07/01 14:16:20;;;;;;;1.83;1.67;;;;;;;;;;5058317;28;20036;-75
2022/07/01 14:18:46;;;;;;;1.65;1.55;;;;;;;;;;5056414;28;20380;-74
2022/07/01 14:21:13;;;;;;;1.35;1.25;;;;;;;;;;5057143;28;20442;-74
2022/07/01 14:23:39;;;;;;;1.58;1.48;;;;;;;;;;5053384;28;20089;-73
2022/07/01 14:26:05;;;;;;;1.10;1.10;;;;;;;;;;5051316;28;20039;-75
2022/07/01 14:28:35;;;;;;;1.52;1.20;;;;;;;;;;5058307;28;20059;-73
2022/07/01 14:31:01;;;;;;;1.38;1.27;;;;;;;;;;5059022;28;20045;-75
2022/07/01 14:33:28;;;;;;;1.50;1.40;;;;;;;;;;5055928;28;20075;-74
2022/07/01 14:35:54;;;;;;;3.13;1.63;;;;;;;;;;5054944;28;20277;-74
2022/07/01 14:38:20;;;;;;;1.50;1.40;;;;;;;;;;5056636;28;20032;-76
2022/07/01 14:40:47;;;;;;;1.52;1.42;;;;;;;;;;5055021;28;20603;-76
2022/07/01 14:43:13;;;;;;;1.70;1.60;;;;;;;;;;5060822;28;20123;-75
2022/07/01 14:45:40;;;;;;;2.70;1.95;;;;;;;;;;5060526;28;20401;-75
2022/07/01 14:48:07;;;;;;;3.22;2.40;;;;;;;;;;5060297;28;20131;-76
2022/07/01 14:50:34;;;;;;;3.33;2.22;;;;;;;;;;5060915;28;20111;-75
2022/07/01 14:53:01;;;;;;;4.95;3.17;;;;;;;;;;5061755;28;20078;-75
2022/07/01 14:55:31;;;;;;;4.93;2.80;;;;;;;;;;5058157;28;20032;-75
2022/07/01 14:57:57;;;;;;;5.07;2.65;;;;;;;;;;5061413;28;20028;-74
2022/07/01 15:00:25;;;;;;;3.28;2.67;;;;;;;;;;5058402;28;20017;-76
2022/07/01 15:02:51;;;;;;;3.83;3.10;;;;;;;;;;5060720;28;20028;-76
2022/07/01 15:05:17;;;;;;;3.55;2.75;;;;;;;;;;5060672;28;20043;-75